sensor_id;sensor_type;location;lat;lon;timestamp;P1;durP1;ratioP1;P2;durP2;ratioP2
79212;SDS011;68639;52.380;9.822;2023-08-07T00:01:00;15.55;;;6.95;;
79212;SDS011;68639;52.380;9.822;2023-08-07T00:03:25;8.00;;;5.40;;
79212;SDS011;68639;52.380;9.822;2023-08-07T00:05:51;11.18;;;6.00;;
79212;SDS011;68639;52.380;9.822;2023-08-07T00:08:17;11.98;;;6.65;;
79212;SDS011;68639;52.380;9.822;2023-08-07T00:10:42;14.45;;;6.80;;
79212;SDS011;68639;52.380;9.822;2023-08-07T00:13:07;10.20;;;6.60;;
79212;SDS011;68639;52.380;9.822;2023-08-07T00:15:32;13.27;;;7.35;;
79212;SDS011;68639;52.380;9.822;2023-08-07T00:18:00;12.43;;;7.80;;
79212;SDS011;68639;52.380;9.822;2023-08-07T00:20:25;12.38;;;8.15;;
79212;SDS011;68639;52.380;9.822;2023-08-07T00:22:50;13.32;;;7.68;;
79212;SDS011;68639;52.380;9.822;2023-08-07T00:25:16;14.32;;;8.68;;
79212;SDS011;68639;52.380;9.822;2023-08-07T00:27:41;11.07;;;7.25;;
79212;SDS011;68639;52.380;9.822;2023-08-07T00:30:06;10.07;;;6.70;;
79212;SDS011;68639;52.380;9.822;2023-08-07T00:32:32;14.07;;;7.53;;
79212;SDS011;68639;52.380;9.822;2023-08-07T00:34:57;14.77;;;8.43;;
79212;SDS011;68639;52.380;9.822;2023-08-07T00:37:22;13.15;;;8.45;;
79212;SDS011;68639;52.380;9.822;2023-08-07T00:39:47;15.85;;;10.85;;
79212;SDS011;68639;52.380;9.822;2023-08-07T00:42:12;15.05;;;8.65;;
79212;SDS011;68639;52.380;9.822;2023-08-07T00:44:38;12.95;;;8.60;;
79212;SDS011;68639;52.380;9.822;2023-08-07T00:47:03;13.27;;;8.32;;
79212;SDS011;68639;52.380;9.822;2023-08-07T00:49:28;13.23;;;8.38;;
79212;SDS011;68639;52.380;9.822;2023-08-07T00:51:53;14.73;;;9.27;;
79212;SDS011;68639;52.380;9.822;2023-08-07T00:54:19;13.48;;;9.27;;
79212;SDS011;68639;52.380;9.822;2023-08-07T00:56:45;16.85;;;10.27;;
79212;SDS011;68639;52.380;9.822;2023-08-07T00:59:10;20.55;;;11.50;;
79212;SDS011;68639;52.380;9.822;2023-08-07T01:01:36;16.88;;;11.10;;
79212;SDS011;68639;52.380;9.822;2023-08-07T01:04:01;20.10;;;12.02;;
79212;SDS011;68639;52.380;9.822;2023-08-07T01:06:26;20.88;;;13.05;;
79212;SDS011;68639;52.380;9.822;2023-08-07T01:08:51;22.38;;;13.82;;
79212;SDS011;68639;52.380;9.822;2023-08-07T01:16:21;18.92;;;11.57;;
79212;SDS011;68639;52.380;9.822;2023-08-07T01:18:48;24.33;;;14.00;;
79212;SDS011;68639;52.380;9.822;2023-08-07T01:21:19;21.15;;;14.88;;
79212;SDS011;68639;52.380;9.822;2023-08-07T01:23:48;23.00;;;13.43;;
79212;SDS011;68639;52.380;9.822;2023-08-07T01:26:17;16.67;;;11.77;;
79212;SDS011;68639;52.380;9.822;2023-08-07T01:28:46;19.80;;;12.40;;
79212;SDS011;68639;52.380;9.822;2023-08-07T01:31:14;19.23;;;12.73;;
79212;SDS011;68639;52.380;9.822;2023-08-07T01:33:48;17.63;;;13.15;;
79212;SDS011;68639;52.380;9.822;2023-08-07T01:36:16;19.05;;;12.77;;
79212;SDS011;68639;52.380;9.822;2023-08-07T01:38:41;23.52;;;14.27;;
79212;SDS011;68639;52.380;9.822;2023-08-07T01:41:07;29.45;;;23.05;;
79212;SDS011;68639;52.380;9.822;2023-08-07T01:43:32;19.80;;;14.20;;
79212;SDS011;68639;52.380;9.822;2023-08-07T01:45:58;22.63;;;12.95;;
79212;SDS011;68639;52.380;9.822;2023-08-07T01:48:23;18.52;;;13.48;;
79212;SDS011;68639;52.380;9.822;2023-08-07T01:50:48;20.63;;;14.82;;
79212;SDS011;68639;52.380;9.822;2023-08-07T01:53:14;19.63;;;13.35;;
79212;SDS011;68639;52.380;9.822;2023-08-07T01:55:39;19.40;;;13.68;;
79212;SDS011;68639;52.380;9.822;2023-08-07T01:58:04;18.90;;;12.60;;
79212;SDS011;68639;52.380;9.822;2023-08-07T02:00:29;19.88;;;12.20;;
79212;SDS011;68639;52.380;9.822;2023-08-07T02:02:55;19.20;;;13.50;;
79212;SDS011;68639;52.380;9.822;2023-08-07T02:05:20;18.38;;;13.25;;
79212;SDS011;68639;52.380;9.822;2023-08-07T02:07:45;23.05;;;12.45;;
79212;SDS011;68639;52.380;9.822;2023-08-07T02:10:10;14.63;;;11.43;;
79212;SDS011;68639;52.380;9.822;2023-08-07T02:12:36;21.83;;;11.98;;
79212;SDS011;68639;52.380;9.822;2023-08-07T02:15:01;64.32;;;32.42;;
79212;SDS011;68639;52.380;9.822;2023-08-07T02:17:30;19.67;;;11.02;;
79212;SDS011;68639;52.380;9.822;2023-08-07T02:19:55;18.20;;;11.57;;
79212;SDS011;68639;52.380;9.822;2023-08-07T02:22:20;16.17;;;11.43;;
79212;SDS011;68639;52.380;9.822;2023-08-07T02:24:46;17.70;;;10.27;;
79212;SDS011;68639;52.380;9.822;2023-08-07T02:27:11;18.45;;;10.10;;
79212;SDS011;68639;52.380;9.822;2023-08-07T02:29:36;16.05;;;9.65;;
79212;SDS011;68639;52.380;9.822;2023-08-07T02:32:01;16.70;;;9.80;;
79212;SDS011;68639;52.380;9.822;2023-08-07T02:34:27;16.67;;;10.43;;
79212;SDS011;68639;52.380;9.822;2023-08-07T02:36:53;16.45;;;9.68;;
79212;SDS011;68639;52.380;9.822;2023-08-07T02:39:18;11.88;;;8.55;;
79212;SDS011;68639;52.380;9.822;2023-08-07T02:41:43;19.98;;;9.15;;
79212;SDS011;68639;52.380;9.822;2023-08-07T02:44:08;19.35;;;9.30;;
79212;SDS011;68639;52.380;9.822;2023-08-07T02:46:33;17.88;;;8.85;;
79212;SDS011;68639;52.380;9.822;2023-08-07T02:49:01;14.90;;;7.65;;
79212;SDS011;68639;52.380;9.822;2023-08-07T02:51:26;14.05;;;8.23;;
79212;SDS011;68639;52.380;9.822;2023-08-07T02:53:51;12.38;;;7.32;;
79212;SDS011;68639;52.380;9.822;2023-08-07T02:56:16;13.80;;;7.57;;
79212;SDS011;68639;52.380;9.822;2023-08-07T02:58:41;17.10;;;7.97;;
79212;SDS011;68639;52.380;9.822;2023-08-07T03:01:07;17.70;;;7.78;;
79212;SDS011;68639;52.380;9.822;2023-08-07T03:03:33;15.52;;;8.18;;
79212;SDS011;68639;52.380;9.822;2023-08-07T03:05:58;17.65;;;8.60;;
79212;SDS011;68639;52.380;9.822;2023-08-07T03:08:23;12.63;;;7.78;;
79212;SDS011;68639;52.380;9.822;2023-08-07T03:10:52;14.43;;;7.47;;
79212;SDS011;68639;52.380;9.822;2023-08-07T03:13:17;14.30;;;8.57;;
79212;SDS011;68639;52.380;9.822;2023-08-07T03:15:43;14.70;;;8.35;;
79212;SDS011;68639;52.380;9.822;2023-08-07T03:18:08;15.30;;;8.93;;
79212;SDS011;68639;52.380;9.822;2023-08-07T03:20:35;17.55;;;9.15;;
79212;SDS011;68639;52.380;9.822;2023-08-07T03:23:01;19.60;;;9.27;;
79212;SDS011;68639;52.380;9.822;2023-08-07T03:25:26;16.75;;;10.23;;
79212;SDS011;68639;52.380;9.822;2023-08-07T03:27:51;17.38;;;9.80;;
79212;SDS011;68639;52.380;9.822;2023-08-07T03:30:16;15.23;;;9.98;;
79212;SDS011;68639;52.380;9.822;2023-08-07T03:32:41;15.52;;;10.25;;
79212;SDS011;68639;52.380;9.822;2023-08-07T03:35:07;15.82;;;9.38;;
79212;SDS011;68639;52.380;9.822;2023-08-07T03:37:32;19.05;;;10.25;;
79212;SDS011;68639;52.380;9.822;2023-08-07T03:39:57;19.83;;;9.93;;
79212;SDS011;68639;52.380;9.822;2023-08-07T03:42:22;17.17;;;10.18;;
79212;SDS011;68639;52.380;9.822;2023-08-07T03:44:47;16.60;;;9.50;;
79212;SDS011;68639;52.380;9.822;2023-08-07T03:47:13;15.95;;;9.43;;
79212;SDS011;68639;52.380;9.822;2023-08-07T03:49:38;21.23;;;10.88;;
79212;SDS011;68639;52.380;9.822;2023-08-07T03:52:04;21.33;;;10.77;;
79212;SDS011;68639;52.380;9.822;2023-08-07T03:54:29;16.73;;;10.25;;
79212;SDS011;68639;52.380;9.822;2023-08-07T03:56:54;21.38;;;10.02;;
79212;SDS011;68639;52.380;9.822;2023-08-07T03:59:19;17.55;;;10.90;;
79212;SDS011;68639;52.380;9.822;2023-08-07T04:01:45;19.85;;;9.93;;
79212;SDS011;68639;52.380;9.822;2023-08-07T04:04:10;22.05;;;10.73;;
79212;SDS011;68639;52.380;9.822;2023-08-07T04:06:35;17.48;;;9.73;;
79212;SDS011;68639;52.380;9.822;2023-08-07T04:09:00;19.77;;;10.15;;
79212;SDS011;68639;52.380;9.822;2023-08-07T04:11:26;17.23;;;9.75;;
79212;SDS011;68639;52.380;9.822;2023-08-07T04:13:52;16.67;;;10.00;;
79212;SDS011;68639;52.380;9.822;2023-08-07T04:16:17;14.60;;;9.18;;
79212;SDS011;68639;52.380;9.822;2023-08-07T04:18:42;19.38;;;9.63;;
79212;SDS011;68639;52.380;9.822;2023-08-07T04:21:07;18.17;;;10.27;;
79212;SDS011;68639;52.380;9.822;2023-08-07T04:23:33;14.90;;;9.30;;
79212;SDS011;68639;52.380;9.822;2023-08-07T04:25:58;18.75;;;9.13;;
79212;SDS011;68639;52.380;9.822;2023-08-07T04:28:24;14.95;;;8.95;;
79212;SDS011;68639;52.380;9.822;2023-08-07T04:30:49;15.90;;;9.30;;
79212;SDS011;68639;52.380;9.822;2023-08-07T04:33:18;14.52;;;8.85;;
79212;SDS011;68639;52.380;9.822;2023-08-07T04:35:44;20.65;;;11.52;;
79212;SDS011;68639;52.380;9.822;2023-08-07T04:38:10;17.88;;;9.68;;
79212;SDS011;68639;52.380;9.822;2023-08-07T04:40:35;17.05;;;9.18;;
79212;SDS011;68639;52.380;9.822;2023-08-07T04:43:00;16.27;;;8.48;;
79212;SDS011;68639;52.380;9.822;2023-08-07T04:45:27;17.58;;;8.88;;
79212;SDS011;68639;52.380;9.822;2023-08-07T04:47:52;12.32;;;8.20;;
79212;SDS011;68639;52.380;9.822;2023-08-07T04:50:17;19.35;;;8.50;;
79212;SDS011;68639;52.380;9.822;2023-08-07T04:52:42;14.85;;;7.60;;
79212;SDS011;68639;52.380;9.822;2023-08-07T04:55:08;15.40;;;7.95;;
79212;SDS011;68639;52.380;9.822;2023-08-07T04:57:33;12.50;;;8.30;;
79212;SDS011;68639;52.380;9.822;2023-08-07T04:59:58;16.85;;;8.55;;
79212;SDS011;68639;52.380;9.822;2023-08-07T05:02:23;14.20;;;8.10;;
79212;SDS011;68639;52.380;9.822;2023-08-07T05:04:49;13.35;;;8.25;;
79212;SDS011;68639;52.380;9.822;2023-08-07T05:07:14;17.45;;;8.57;;
79212;SDS011;68639;52.380;9.822;2023-08-07T05:09:40;17.45;;;8.25;;
79212;SDS011;68639;52.380;9.822;2023-08-07T05:12:05;16.15;;;8.18;;
79212;SDS011;68639;52.380;9.822;2023-08-07T05:14:32;14.13;;;8.07;;
79212;SDS011;68639;52.380;9.822;2023-08-07T05:16:57;13.40;;;7.10;;
79212;SDS011;68639;52.380;9.822;2023-08-07T05:19:22;15.63;;;8.35;;
79212;SDS011;68639;52.380;9.822;2023-08-07T05:21:48;15.65;;;7.35;;
79212;SDS011;68639;52.380;9.822;2023-08-07T05:24:16;13.68;;;7.80;;
79212;SDS011;68639;52.380;9.822;2023-08-07T05:26:41;15.55;;;7.68;;
79212;SDS011;68639;52.380;9.822;2023-08-07T05:29:07;19.10;;;9.18;;
79212;SDS011;68639;52.380;9.822;2023-08-07T05:31:32;9.75;;;6.38;;
79212;SDS011;68639;52.380;9.822;2023-08-07T05:33:58;11.68;;;6.40;;
79212;SDS011;68639;52.380;9.822;2023-08-07T05:36:23;15.23;;;6.90;;
79212;SDS011;68639;52.380;9.822;2023-08-07T05:38:48;9.60;;;6.55;;
79212;SDS011;68639;52.380;9.822;2023-08-07T05:41:13;11.75;;;6.00;;
79212;SDS011;68639;52.380;9.822;2023-08-07T05:43:39;11.80;;;6.28;;
79212;SDS011;68639;52.380;9.822;2023-08-07T05:46:04;11.48;;;5.80;;
79212;SDS011;68639;52.380;9.822;2023-08-07T05:48:29;8.65;;;5.35;;
79212;SDS011;68639;52.380;9.822;2023-08-07T05:50:54;10.10;;;5.38;;
79212;SDS011;68639;52.380;9.822;2023-08-07T05:53:19;12.02;;;4.97;;
79212;SDS011;68639;52.380;9.822;2023-08-07T05:55:45;11.48;;;5.88;;
79212;SDS011;68639;52.380;9.822;2023-08-07T05:58:10;11.57;;;5.13;;
79212;SDS011;68639;52.380;9.822;2023-08-07T06:00:35;9.80;;;5.45;;
79212;SDS011;68639;52.380;9.822;2023-08-07T06:03:00;10.98;;;5.00;;
79212;SDS011;68639;52.380;9.822;2023-08-07T06:05:26;9.02;;;5.28;;
79212;SDS011;68639;52.380;9.822;2023-08-07T06:07:51;13.25;;;5.10;;
79212;SDS011;68639;52.380;9.822;2023-08-07T06:10:16;10.95;;;4.93;;
79212;SDS011;68639;52.380;9.822;2023-08-07T06:12:41;7.95;;;4.45;;
79212;SDS011;68639;52.380;9.822;2023-08-07T06:15:07;9.25;;;4.65;;
79212;SDS011;68639;52.380;9.822;2023-08-07T06:17:33;10.70;;;4.68;;
79212;SDS011;68639;52.380;9.822;2023-08-07T06:19:58;9.65;;;4.70;;
79212;SDS011;68639;52.380;9.822;2023-08-07T06:22:24;8.10;;;4.80;;
79212;SDS011;68639;52.380;9.822;2023-08-07T06:24:49;7.47;;;4.70;;
79212;SDS011;68639;52.380;9.822;2023-08-07T06:27:14;6.72;;;4.60;;
79212;SDS011;68639;52.380;9.822;2023-08-07T06:29:40;10.20;;;4.30;;
79212;SDS011;68639;52.380;9.822;2023-08-07T06:32:05;10.35;;;5.78;;
79212;SDS011;68639;52.380;9.822;2023-08-07T06:34:31;7.57;;;4.10;;
79212;SDS011;68639;52.380;9.822;2023-08-07T06:36:56;9.63;;;4.38;;
79212;SDS011;68639;52.380;9.822;2023-08-07T06:39:21;6.53;;;3.33;;
79212;SDS011;68639;52.380;9.822;2023-08-07T06:41:46;7.43;;;3.50;;
79212;SDS011;68639;52.380;9.822;2023-08-07T06:44:11;7.68;;;3.20;;
79212;SDS011;68639;52.380;9.822;2023-08-07T06:46:37;7.88;;;3.45;;
79212;SDS011;68639;52.380;9.822;2023-08-07T06:49:02;7.45;;;2.75;;
79212;SDS011;68639;52.380;9.822;2023-08-07T06:51:27;7.47;;;3.10;;
79212;SDS011;68639;52.380;9.822;2023-08-07T06:53:52;6.10;;;2.55;;
79212;SDS011;68639;52.380;9.822;2023-08-07T06:56:17;8.48;;;3.00;;
79212;SDS011;68639;52.380;9.822;2023-08-07T06:58:43;5.25;;;2.50;;
79212;SDS011;68639;52.380;9.822;2023-08-07T07:01:08;6.00;;;2.95;;
79212;SDS011;68639;52.380;9.822;2023-08-07T07:03:33;5.30;;;2.53;;
79212;SDS011;68639;52.380;9.822;2023-08-07T07:05:58;5.70;;;2.75;;
79212;SDS011;68639;52.380;9.822;2023-08-07T07:08:24;7.32;;;2.70;;
79212;SDS011;68639;52.380;9.822;2023-08-07T07:10:49;7.43;;;3.03;;
79212;SDS011;68639;52.380;9.822;2023-08-07T07:13:14;7.45;;;2.80;;
79212;SDS011;68639;52.380;9.822;2023-08-07T07:15:39;7.40;;;2.47;;
79212;SDS011;68639;52.380;9.822;2023-08-07T07:18:05;8.43;;;2.88;;
79212;SDS011;68639;52.380;9.822;2023-08-07T07:20:30;6.47;;;2.78;;
79212;SDS011;68639;52.380;9.822;2023-08-07T07:22:55;12.18;;;2.65;;
79212;SDS011;68639;52.380;9.822;2023-08-07T07:25:21;10.48;;;2.85;;
79212;SDS011;68639;52.380;9.822;2023-08-07T07:27:46;7.70;;;3.05;;
79212;SDS011;68639;52.380;9.822;2023-08-07T07:30:11;8.05;;;2.33;;
79212;SDS011;68639;52.380;9.822;2023-08-07T07:32:36;8.40;;;3.30;;
79212;SDS011;68639;52.380;9.822;2023-08-07T07:35:02;9.40;;;3.08;;
79212;SDS011;68639;52.380;9.822;2023-08-07T07:37:29;8.15;;;2.75;;
79212;SDS011;68639;52.380;9.822;2023-08-07T07:39:54;6.38;;;2.58;;
79212;SDS011;68639;52.380;9.822;2023-08-07T07:42:20;6.97;;;2.92;;
79212;SDS011;68639;52.380;9.822;2023-08-07T07:44:45;8.18;;;2.60;;
79212;SDS011;68639;52.380;9.822;2023-08-07T07:47:10;6.93;;;2.70;;
79212;SDS011;68639;52.380;9.822;2023-08-07T07:49:35;7.03;;;2.80;;
79212;SDS011;68639;52.380;9.822;2023-08-07T07:52:01;6.25;;;2.15;;
79212;SDS011;68639;52.380;9.822;2023-08-07T07:54:27;7.32;;;2.28;;
79212;SDS011;68639;52.380;9.822;2023-08-07T07:56:52;6.68;;;1.80;;
79212;SDS011;68639;52.380;9.822;2023-08-07T07:59:18;3.47;;;1.60;;
79212;SDS011;68639;52.380;9.822;2023-08-07T08:01:43;5.93;;;2.08;;
79212;SDS011;68639;52.380;9.822;2023-08-07T08:04:08;5.05;;;1.77;;
79212;SDS011;68639;52.380;9.822;2023-08-07T08:06:35;4.63;;;1.88;;
79212;SDS011;68639;52.380;9.822;2023-08-07T08:09:00;5.57;;;1.80;;
79212;SDS011;68639;52.380;9.822;2023-08-07T08:11:29;4.32;;;1.55;;
79212;SDS011;68639;52.380;9.822;2023-08-07T08:13:54;8.48;;;1.92;;
79212;SDS011;68639;52.380;9.822;2023-08-07T08:16:19;7.35;;;1.88;;
79212;SDS011;68639;52.380;9.822;2023-08-07T08:18:44;7.20;;;2.30;;
79212;SDS011;68639;52.380;9.822;2023-08-07T08:21:09;8.23;;;2.42;;
79212;SDS011;68639;52.380;9.822;2023-08-07T08:23:35;5.70;;;1.95;;
79212;SDS011;68639;52.380;9.822;2023-08-07T08:26:00;7.13;;;1.75;;
79212;SDS011;68639;52.380;9.822;2023-08-07T08:28:26;4.13;;;1.67;;
79212;SDS011;68639;52.380;9.822;2023-08-07T08:30:51;4.85;;;1.48;;
79212;SDS011;68639;52.380;9.822;2023-08-07T08:33:16;4.93;;;1.45;;
79212;SDS011;68639;52.380;9.822;2023-08-07T08:35:42;6.97;;;1.45;;
79212;SDS011;68639;52.380;9.822;2023-08-07T08:38:08;8.35;;;1.85;;
79212;SDS011;68639;52.380;9.822;2023-08-07T08:40:33;6.13;;;1.88;;
79212;SDS011;68639;52.380;9.822;2023-08-07T08:43:00;6.18;;;1.85;;
79212;SDS011;68639;52.380;9.822;2023-08-07T08:45:26;4.15;;;1.30;;
79212;SDS011;68639;52.380;9.822;2023-08-07T08:47:51;8.68;;;1.60;;
79212;SDS011;68639;52.380;9.822;2023-08-07T08:50:19;4.35;;;1.65;;
79212;SDS011;68639;52.380;9.822;2023-08-07T08:52:45;7.38;;;1.83;;
79212;SDS011;68639;52.380;9.822;2023-08-07T08:55:11;8.18;;;1.60;;
79212;SDS011;68639;52.380;9.822;2023-08-07T08:57:37;9.23;;;1.77;;
79212;SDS011;68639;52.380;9.822;2023-08-07T09:00:02;13.65;;;2.33;;
79212;SDS011;68639;52.380;9.822;2023-08-07T09:02:39;12.57;;;2.55;;
79212;SDS011;68639;52.380;9.822;2023-08-07T09:05:05;13.65;;;4.15;;
79212;SDS011;68639;52.380;9.822;2023-08-07T09:07:30;8.63;;;3.47;;
79212;SDS011;68639;52.380;9.822;2023-08-07T09:09:55;10.60;;;3.20;;
79212;SDS011;68639;52.380;9.822;2023-08-07T09:12:23;16.83;;;3.63;;
79212;SDS011;68639;52.380;9.822;2023-08-07T09:14:57;11.50;;;3.28;;
79212;SDS011;68639;52.380;9.822;2023-08-07T09:17:28;13.27;;;3.95;;
79212;SDS011;68639;52.380;9.822;2023-08-07T09:19:57;12.65;;;3.20;;
79212;SDS011;68639;52.380;9.822;2023-08-07T09:22:23;14.68;;;4.10;;
79212;SDS011;68639;52.380;9.822;2023-08-07T09:24:48;14.98;;;4.05;;
79212;SDS011;68639;52.380;9.822;2023-08-07T09:27:14;15.38;;;3.88;;
79212;SDS011;68639;52.380;9.822;2023-08-07T09:29:39;14.10;;;3.95;;
79212;SDS011;68639;52.380;9.822;2023-08-07T09:32:08;11.88;;;3.33;;
79212;SDS011;68639;52.380;9.822;2023-08-07T09:34:34;10.98;;;3.28;;
79212;SDS011;68639;52.380;9.822;2023-08-07T09:36:59;10.43;;;3.13;;
79212;SDS011;68639;52.380;9.822;2023-08-07T09:39:24;14.57;;;3.30;;
79212;SDS011;68639;52.380;9.822;2023-08-07T09:41:53;10.38;;;2.85;;
79212;SDS011;68639;52.380;9.822;2023-08-07T09:44:18;11.68;;;3.10;;
79212;SDS011;68639;52.380;9.822;2023-08-07T09:46:44;12.55;;;3.15;;
79212;SDS011;68639;52.380;9.822;2023-08-07T09:49:09;15.05;;;2.67;;
79212;SDS011;68639;52.380;9.822;2023-08-07T09:51:47;8.27;;;3.05;;
79212;SDS011;68639;52.380;9.822;2023-08-07T09:54:12;7.75;;;2.33;;
79212;SDS011;68639;52.380;9.822;2023-08-07T09:56:39;14.52;;;5.55;;
79212;SDS011;68639;52.380;9.822;2023-08-07T09:59:04;8.85;;;2.47;;
79212;SDS011;68639;52.380;9.822;2023-08-07T10:01:30;11.40;;;3.75;;
79212;SDS011;68639;52.380;9.822;2023-08-07T10:03:55;27.58;;;20.50;;
79212;SDS011;68639;52.380;9.822;2023-08-07T10:06:21;13.55;;;2.83;;
79212;SDS011;68639;52.380;9.822;2023-08-07T10:08:46;6.57;;;1.92;;
79212;SDS011;68639;52.380;9.822;2023-08-07T10:11:12;10.38;;;2.67;;
79212;SDS011;68639;52.380;9.822;2023-08-07T10:13:39;7.28;;;2.00;;
79212;SDS011;68639;52.380;9.822;2023-08-07T10:16:05;9.77;;;2.55;;
79212;SDS011;68639;52.380;9.822;2023-08-07T10:18:30;9.38;;;2.50;;
79212;SDS011;68639;52.380;9.822;2023-08-07T10:20:56;9.38;;;2.40;;
79212;SDS011;68639;52.380;9.822;2023-08-07T10:23:22;9.57;;;2.28;;
79212;SDS011;68639;52.380;9.822;2023-08-07T10:25:48;12.35;;;3.28;;
79212;SDS011;68639;52.380;9.822;2023-08-07T10:28:15;11.90;;;3.13;;
79212;SDS011;68639;52.380;9.822;2023-08-07T10:30:41;7.03;;;2.30;;
79212;SDS011;68639;52.380;9.822;2023-08-07T10:33:07;14.32;;;2.92;;
79212;SDS011;68639;52.380;9.822;2023-08-07T10:35:33;10.60;;;2.70;;
79212;SDS011;68639;52.380;9.822;2023-08-07T10:38:08;11.18;;;2.83;;
79212;SDS011;68639;52.380;9.822;2023-08-07T10:40:34;15.52;;;2.83;;
79212;SDS011;68639;52.380;9.822;2023-08-07T10:43:19;12.10;;;2.47;;
79212;SDS011;68639;52.380;9.822;2023-08-07T10:45:44;9.32;;;2.92;;
79212;SDS011;68639;52.380;9.822;2023-08-07T10:48:13;10.13;;;2.33;;
79212;SDS011;68639;52.380;9.822;2023-08-07T10:53:20;9.93;;;2.67;;
79212;SDS011;68639;52.380;9.822;2023-08-07T10:55:46;12.65;;;2.58;;
79212;SDS011;68639;52.380;9.822;2023-08-07T10:58:22;11.60;;;2.47;;
79212;SDS011;68639;52.380;9.822;2023-08-07T11:00:48;11.60;;;2.13;;
79212;SDS011;68639;52.380;9.822;2023-08-07T11:03:20;8.63;;;2.17;;
79212;SDS011;68639;52.380;9.822;2023-08-07T11:05:45;10.80;;;2.50;;
79212;SDS011;68639;52.380;9.822;2023-08-07T11:08:11;10.30;;;2.72;;
79212;SDS011;68639;52.380;9.822;2023-08-07T11:10:36;15.10;;;2.38;;
79212;SDS011;68639;52.380;9.822;2023-08-07T11:13:01;13.43;;;2.47;;
79212;SDS011;68639;52.380;9.822;2023-08-07T11:15:27;10.68;;;2.70;;
79212;SDS011;68639;52.380;9.822;2023-08-07T11:17:52;11.88;;;2.67;;
79212;SDS011;68639;52.380;9.822;2023-08-07T11:20:18;15.13;;;2.10;;
79212;SDS011;68639;52.380;9.822;2023-08-07T11:22:44;13.52;;;2.25;;
79212;SDS011;68639;52.380;9.822;2023-08-07T11:25:09;9.23;;;2.05;;
79212;SDS011;68639;52.380;9.822;2023-08-07T11:27:36;9.07;;;2.10;;
79212;SDS011;68639;52.380;9.822;2023-08-07T11:30:01;8.70;;;2.00;;
79212;SDS011;68639;52.380;9.822;2023-08-07T11:32:26;10.68;;;2.20;;
79212;SDS011;68639;52.380;9.822;2023-08-07T11:34:52;9.23;;;2.35;;
79212;SDS011;68639;52.380;9.822;2023-08-07T11:37:17;14.95;;;2.30;;
79212;SDS011;68639;52.380;9.822;2023-08-07T11:39:42;14.32;;;5.63;;
79212;SDS011;68639;52.380;9.822;2023-08-07T11:42:08;7.80;;;1.90;;
79212;SDS011;68639;52.380;9.822;2023-08-07T11:44:33;6.85;;;1.65;;
79212;SDS011;68639;52.380;9.822;2023-08-07T11:46:58;6.53;;;1.02;;
79212;SDS011;68639;52.380;9.822;2023-08-07T11:49:24;5.75;;;1.60;;
79212;SDS011;68639;52.380;9.822;2023-08-07T11:51:49;7.72;;;1.67;;
79212;SDS011;68639;52.380;9.822;2023-08-07T11:54:15;8.73;;;1.70;;
79212;SDS011;68639;52.380;9.822;2023-08-07T11:56:41;6.95;;;1.83;;
79212;SDS011;68639;52.380;9.822;2023-08-07T11:59:07;5.80;;;1.55;;
79212;SDS011;68639;52.380;9.822;2023-08-07T12:01:36;7.00;;;1.70;;
79212;SDS011;68639;52.380;9.822;2023-08-07T12:06:30;11.32;;;2.13;;
79212;SDS011;68639;52.380;9.822;2023-08-07T12:08:56;7.47;;;1.90;;
79212;SDS011;68639;52.380;9.822;2023-08-07T12:11:21;10.00;;;2.10;;
79212;SDS011;68639;52.380;9.822;2023-08-07T12:13:47;6.97;;;1.60;;
79212;SDS011;68639;52.380;9.822;2023-08-07T12:16:13;7.72;;;1.98;;
79212;SDS011;68639;52.380;9.822;2023-08-07T12:18:43;4.93;;;1.55;;
79212;SDS011;68639;52.380;9.822;2023-08-07T12:21:08;6.78;;;1.48;;
79212;SDS011;68639;52.380;9.822;2023-08-07T12:23:34;4.75;;;1.48;;
79212;SDS011;68639;52.380;9.822;2023-08-07T12:26:00;5.60;;;1.50;;
79212;SDS011;68639;52.380;9.822;2023-08-07T12:28:25;6.63;;;1.20;;
79212;SDS011;68639;52.380;9.822;2023-08-07T12:30:51;11.50;;;1.80;;
79212;SDS011;68639;52.380;9.822;2023-08-07T12:33:16;7.35;;;1.50;;
79212;SDS011;68639;52.380;9.822;2023-08-07T12:35:42;13.73;;;1.58;;
79212;SDS011;68639;52.380;9.822;2023-08-07T12:38:07;12.23;;;2.00;;
79212;SDS011;68639;52.380;9.822;2023-08-07T12:40:34;5.38;;;1.27;;
79212;SDS011;68639;52.380;9.822;2023-08-07T12:43:01;9.30;;;2.30;;
79212;SDS011;68639;52.380;9.822;2023-08-07T12:45:26;9.90;;;1.65;;
79212;SDS011;68639;52.380;9.822;2023-08-07T12:47:51;8.20;;;1.45;;
79212;SDS011;68639;52.380;9.822;2023-08-07T12:50:16;8.68;;;1.67;;
79212;SDS011;68639;52.380;9.822;2023-08-07T12:52:42;12.80;;;2.00;;
79212;SDS011;68639;52.380;9.822;2023-08-07T12:55:07;6.88;;;1.73;;
79212;SDS011;68639;52.380;9.822;2023-08-07T12:57:33;9.25;;;1.75;;
79212;SDS011;68639;52.380;9.822;2023-08-07T12:59:58;5.72;;;1.80;;
79212;SDS011;68639;52.380;9.822;2023-08-07T13:02:23;12.32;;;2.20;;
79212;SDS011;68639;52.380;9.822;2023-08-07T13:04:48;9.93;;;2.25;;
79212;SDS011;68639;52.380;9.822;2023-08-07T13:07:14;7.75;;;1.70;;
79212;SDS011;68639;52.380;9.822;2023-08-07T13:09:39;11.93;;;2.42;;
79212;SDS011;68639;52.380;9.822;2023-08-07T13:12:04;8.00;;;2.10;;
79212;SDS011;68639;52.380;9.822;2023-08-07T13:14:30;13.48;;;2.47;;
79212;SDS011;68639;52.380;9.822;2023-08-07T13:16:55;7.65;;;2.15;;
79212;SDS011;68639;52.380;9.822;2023-08-07T13:19:20;17.17;;;2.70;;
79212;SDS011;68639;52.380;9.822;2023-08-07T13:21:45;15.15;;;2.70;;
79212;SDS011;68639;52.380;9.822;2023-08-07T13:24:10;12.45;;;2.30;;
79212;SDS011;68639;52.380;9.822;2023-08-07T13:26:36;12.10;;;2.75;;
79212;SDS011;68639;52.380;9.822;2023-08-07T13:29:02;11.82;;;2.63;;
79212;SDS011;68639;52.380;9.822;2023-08-07T13:31:27;12.40;;;1.95;;
79212;SDS011;68639;52.380;9.822;2023-08-07T13:33:53;13.70;;;2.75;;
79212;SDS011;68639;52.380;9.822;2023-08-07T13:36:18;12.55;;;2.28;;
79212;SDS011;68639;52.380;9.822;2023-08-07T13:38:43;8.93;;;2.13;;
79212;SDS011;68639;52.380;9.822;2023-08-07T13:41:08;9.43;;;2.05;;
79212;SDS011;68639;52.380;9.822;2023-08-07T13:43:33;6.35;;;1.70;;
79212;SDS011;68639;52.380;9.822;2023-08-07T13:45:59;16.98;;;2.45;;
79212;SDS011;68639;52.380;9.822;2023-08-07T13:48:24;11.05;;;2.10;;
79212;SDS011;68639;52.380;9.822;2023-08-07T13:50:53;7.18;;;2.03;;
79212;SDS011;68639;52.380;9.822;2023-08-07T13:53:18;8.65;;;2.08;;
79212;SDS011;68639;52.380;9.822;2023-08-07T13:55:44;7.03;;;1.98;;
79212;SDS011;68639;52.380;9.822;2023-08-07T13:58:10;8.30;;;1.95;;
79212;SDS011;68639;52.380;9.822;2023-08-07T14:00:35;8.63;;;2.47;;
79212;SDS011;68639;52.380;9.822;2023-08-07T14:03:00;11.55;;;2.20;;
79212;SDS011;68639;52.380;9.822;2023-08-07T14:05:26;9.40;;;1.92;;
79212;SDS011;68639;52.380;9.822;2023-08-07T14:07:51;11.95;;;2.20;;
79212;SDS011;68639;52.380;9.822;2023-08-07T14:10:18;9.98;;;2.25;;
79212;SDS011;68639;52.380;9.822;2023-08-07T14:12:43;8.90;;;2.30;;
79212;SDS011;68639;52.380;9.822;2023-08-07T14:15:08;8.32;;;2.22;;
79212;SDS011;68639;52.380;9.822;2023-08-07T14:17:34;9.05;;;2.10;;
79212;SDS011;68639;52.380;9.822;2023-08-07T14:19:59;9.80;;;2.30;;
79212;SDS011;68639;52.380;9.822;2023-08-07T14:22:24;8.75;;;2.13;;
79212;SDS011;68639;52.380;9.822;2023-08-07T14:24:49;21.20;;;2.42;;
79212;SDS011;68639;52.380;9.822;2023-08-07T14:27:14;10.50;;;2.30;;
79212;SDS011;68639;52.380;9.822;2023-08-07T14:29:40;11.55;;;2.63;;
79212;SDS011;68639;52.380;9.822;2023-08-07T14:32:05;8.60;;;2.33;;
79212;SDS011;68639;52.380;9.822;2023-08-07T14:34:30;7.82;;;1.95;;
79212;SDS011;68639;52.380;9.822;2023-08-07T14:36:55;11.93;;;2.30;;
79212;SDS011;68639;52.380;9.822;2023-08-07T14:39:21;8.68;;;2.10;;